Time;durP1;ratioP1;P1;durP2;ratioP2;P2;SDS_P1;SDS_P2;PMS_P1;PMS_P2;Temp;Humidity;BMP_temperature;BMP_pressure;BME280_temperature;BME280_humidity;BME280_pressure;Samples;Min_cycle;Max_cycle;Signal;HPM_P1;HPM_P2
2022/12/05 00:01:34;;;;;;;7.27;5.80;;;;;;;-142.25;100.00;58004.16;5031897;28;20525;-61
2022/12/05 00:04:07;;;;;;;6.90;4.87;;;;;;;-142.25;100.00;58004.16;5030327;28;20037;-60
2022/12/05 00:06:34;;;;;;;9.23;5.40;;;;;;;-142.25;100.00;58004.16;5032032;28;20037;-61
2022/12/05 00:09:00;;;;;;;8.07;5.73;;;;;;;-142.25;100.00;58004.16;5033706;28;20540;-61
2022/12/05 00:11:28;;;;;;;6.83;5.30;;;;;;;-142.25;100.00;58004.16;5036192;28;20042;-60
2022/12/05 00:13:56;;;;;;;9.37;5.70;;;;;;;-142.25;100.00;58004.16;5035523;28;20041;-60
2022/12/05 00:16:24;;;;;;;8.90;6.07;;;;;;;-142.25;100.00;58004.16;5035546;28;20127;-60
2022/12/05 00:18:50;;;;;;;8.37;6.33;;;;;;;-142.25;100.00;58004.16;5035856;28;20481;-62
2022/12/05 00:21:22;;;;;;;9.00;5.83;;;;;;;-142.25;100.00;58004.16;5034962;28;20045;-59
2022/12/05 00:23:48;;;;;;;8.73;5.83;;;;;;;-142.25;100.00;58004.16;5036227;28;20521;-60
2022/12/05 00:26:15;;;;;;;9.50;6.70;;;;;;;-142.25;100.00;58004.16;5037211;28;20567;-60
2022/12/05 00:28:41;;;;;;;10.77;6.77;;;;;;;-142.25;100.00;58004.16;5037324;28;20530;-59
2022/12/05 00:31:10;;;;;;;10.00;7.03;;;;;;;-142.25;100.00;58004.16;5035137;28;20140;-59
2022/12/05 00:33:36;;;;;;;9.50;6.47;;;;;;;-142.25;100.00;58004.16;5036329;28;20045;-60
2022/12/05 00:36:04;;;;;;;8.73;5.83;;;;;;;-142.25;100.00;58004.16;5033373;28;20341;-60
2022/12/05 00:38:30;;;;;;;8.90;5.87;;;;;;;-142.25;100.00;58004.16;5035216;28;20044;-59
2022/12/05 00:40:55;;;;;;;9.30;6.77;;;;;;;-142.25;100.00;58004.16;5036686;28;20118;-59
2022/12/05 00:43:21;;;;;;;9.90;6.80;;;;;;;-142.25;100.00;58004.16;5035320;28;20048;-59
2022/12/05 00:45:47;;;;;;;10.67;6.70;;;;;;;-142.25;100.00;58004.16;5035119;28;20063;-60
2022/12/05 00:48:12;;;;;;;10.77;6.63;;;;;;;-142.25;100.00;58004.16;5033969;28;20041;-60
2022/12/05 00:50:38;;;;;;;10.73;6.20;;;;;;;-142.25;100.00;58004.16;5034982;28;20475;-60
2022/12/05 00:53:03;;;;;;;8.23;5.63;;;;;;;-142.25;100.00;58004.16;5030542;28;20210;-61
2022/12/05 00:55:29;;;;;;;9.43;5.93;;;;;;;-142.25;100.00;58004.16;5029808;28;20033;-60
2022/12/05 00:57:54;;;;;;;9.60;6.13;;;;;;;-142.25;100.00;58004.16;5032818;28;20033;-60
2022/12/05 01:00:20;;;;;;;8.70;6.17;;;;;;;-142.25;100.00;58004.16;5034872;28;20136;-60
2022/12/05 01:02:46;;;;;;;9.17;6.07;;;;;;;-142.25;100.00;58004.16;5034235;28;20065;-60
2022/12/05 01:05:12;;;;;;;9.63;7.03;;;;;;;-142.25;100.00;58004.16;5034921;28;20030;-60
2022/12/05 01:07:37;;;;;;;23.53;11.77;;;;;;;-142.25;100.00;58004.16;5036964;28;20037;-59
2022/12/05 01:10:03;;;;;;;98.23;32.20;;;;;;;-142.25;100.00;58004.16;5036920;28;20069;-62
2022/12/05 01:12:29;;;;;;;22.10;13.53;;;;;;;-142.25;100.00;58004.16;5035843;28;20052;-60
2022/12/05 01:14:55;;;;;;;13.33;7.73;;;;;;;-142.25;100.00;58004.16;5035479;28;20538;-59
2022/12/05 01:17:21;;;;;;;7.90;5.07;;;;;;;-142.25;100.00;58004.16;5036006;28;20053;-61
2022/12/05 01:19:46;;;;;;;8.20;5.67;;;;;;;-142.25;100.00;58004.16;5036420;28;20073;-60
2022/12/05 01:22:12;;;;;;;7.47;5.73;;;;;;;-142.25;100.00;58004.16;5035456;28;20075;-61
2022/12/05 01:24:37;;;;;;;7.90;5.80;;;;;;;-142.25;100.00;58004.16;5035110;28;20539;-60
2022/12/05 01:27:03;;;;;;;8.63;6.00;;;;;;;-142.25;100.00;58004.16;5034672;28;20052;-60
2022/12/05 01:29:28;;;;;;;9.30;6.13;;;;;;;-142.25;100.00;58004.16;5035907;28;20045;-60
2022/12/05 01:31:54;;;;;;;9.47;6.50;;;;;;;-142.25;100.00;58004.16;5035363;28;20045;-60
2022/12/05 01:34:21;;;;;;;8.53;5.80;;;;;;;-142.25;100.00;58004.16;5036197;28;20079;-60
2022/12/05 01:36:47;;;;;;;9.57;6.33;;;;;;;-142.25;100.00;58004.16;5033690;28;20511;-59
2022/12/05 01:39:13;;;;;;;7.27;5.47;;;;;;;-142.25;100.00;58004.16;5034230;28;20060;-60
2022/12/05 01:41:46;;;;;;;8.93;6.13;;;;;;;-142.25;100.00;58004.16;5034199;28;20049;-60
2022/12/05 01:44:11;;;;;;;8.97;5.73;;;;;;;-142.25;100.00;58004.16;5034136;28;20045;-60
2022/12/05 01:46:57;;;;;;;8.70;6.00;;;;;;;-142.25;100.00;58004.16;5034005;28;20044;-61
2022/12/05 01:49:36;;;;;;;9.97;6.03;;;;;;;-142.25;100.00;58004.16;5033992;28;20639;-60
2022/12/05 01:52:06;;;;;;;8.60;5.87;;;;;;;-142.25;100.00;58004.16;5034681;28;20029;-60
2022/12/05 01:54:35;;;;;;;7.03;4.43;;;;;;;-142.25;100.00;58004.16;5034081;28;20072;-60
2022/12/05 01:57:05;;;;;;;9.67;6.43;;;;;;;-142.25;100.00;58004.16;5032994;28;20083;-60
2022/12/05 01:59:33;;;;;;;7.50;5.30;;;;;;;-142.25;100.00;58004.16;5033302;28;20037;-60
2022/12/05 02:01:59;;;;;;;7.33;5.07;;;;;;;-142.25;100.00;58004.16;5036359;28;20049;-61
2022/12/05 02:04:26;;;;;;;9.00;5.50;;;;;;;-142.25;100.00;58004.16;5031918;28;20045;-60
2022/12/05 02:06:53;;;;;;;7.37;5.00;;;;;;;-142.25;100.00;58004.16;5033590;28;20049;-60
2022/12/05 02:09:19;;;;;;;8.57;6.57;;;;;;;-142.25;100.00;58004.16;5033068;28;20076;-61
2022/12/05 02:11:58;;;;;;;8.37;5.80;;;;;;;-142.25;100.00;58004.16;5033139;28;20055;-62
2022/12/05 02:14:31;;;;;;;8.47;5.00;;;;;;;-142.25;100.00;58004.16;5033146;28;20072;-59
2022/12/05 02:17:16;;;;;;;9.30;6.23;;;;;;;-142.25;100.00;58004.16;5033737;28;20259;-60
2022/12/05 02:20:06;;;;;;;10.43;6.47;;;;;;;-142.25;100.00;58004.16;5028957;28;20489;-60
2022/12/05 02:22:41;;;;;;;9.67;6.87;;;;;;;-142.25;100.00;58004.16;5030990;28;20048;-60
2022/12/05 02:25:18;;;;;;;10.40;7.00;;;;;;;-142.25;100.00;58004.16;5036082;28;20060;-60
2022/12/05 02:27:59;;;;;;;11.07;7.67;;;;;;;-142.25;100.00;58004.16;5033433;28;20504;-60
2022/12/05 02:30:30;;;;;;;12.60;8.07;;;;;;;-142.25;100.00;58004.16;5032616;28;20048;-60
2022/12/05 02:32:56;;;;;;;11.43;6.40;;;;;;;-142.25;100.00;58004.16;5032965;28;20041;-60
2022/12/05 02:35:51;;;;;;;10.33;6.90;;;;;;;-142.25;100.00;58004.16;5033264;28;20094;-60
2022/12/05 02:38:23;;;;;;;10.65;7.10;;;;;;;-142.25;100.00;58004.16;5033509;28;20106;-60
2022/12/05 02:41:01;;;;;;;10.30;6.93;;;;;;;-142.25;100.00;58004.16;5032716;28;20088;-60
2022/12/05 02:43:30;;;;;;;9.90;7.53;;;;;;;-142.25;100.00;58004.16;5028621;28;20411;-60
2022/12/05 02:45:59;;;;;;;10.37;7.27;;;;;;;-142.25;100.00;58004.16;5024908;28;20326;-61
2022/12/05 02:48:27;;;;;;;10.90;6.73;;;;;;;-142.25;100.00;58004.16;5027114;28;20175;-59
2022/12/05 02:50:57;;;;;;;13.90;8.17;;;;;;;-142.25;100.00;58004.16;5029606;28;20346;-62
2022/12/05 02:53:24;;;;;;;11.53;8.40;;;;;;;-142.25;100.00;58004.16;5032411;28;20693;-62
2022/12/05 02:55:50;;;;;;;11.63;7.80;;;;;;;-142.25;100.00;58004.16;5034917;28;20044;-61
2022/12/05 02:58:21;;;;;;;12.07;7.90;;;;;;;-142.25;100.00;58004.16;5033056;28;20045;-60
2022/12/05 03:00:49;;;;;;;12.73;8.23;;;;;;;-142.25;100.00;58004.16;5032970;28;20045;-59
2022/12/05 03:03:18;;;;;;;13.33;10.37;;;;;;;-142.25;100.00;58004.16;5031167;28;20041;-61
2022/12/05 03:06:09;;;;;;;14.20;9.97;;;;;;;-142.25;100.00;58004.16;5029355;28;20548;-61
2022/12/05 03:08:41;;;;;;;11.50;8.20;;;;;;;-142.25;100.00;58004.16;5026767;28;20056;-60
2022/12/05 03:11:08;;;;;;;14.83;8.20;;;;;;;-142.25;100.00;58004.16;5033619;28;20593;-60
2022/12/05 03:13:56;;;;;;;11.03;7.17;;;;;;;-142.25;100.00;58004.16;5034437;28;20075;-61
2022/12/05 03:16:48;;;;;;;11.77;7.83;;;;;;;-142.25;100.00;58004.16;5032929;28;20546;-61
2022/12/05 03:19:40;;;;;;;10.63;6.90;;;;;;;-142.25;100.00;58004.16;5034412;28;20049;-61
2022/12/05 03:22:17;;;;;;;11.23;6.63;;;;;;;-142.25;100.00;58004.16;5034192;28;20145;-60
2022/12/05 03:24:43;;;;;;;23.23;11.77;;;;;;;-142.25;100.00;58004.16;5030199;28;20048;-61
2022/12/05 03:27:44;;;;;;;45.03;20.43;;;;;;;-142.25;100.00;58004.16;5027967;28;20045;-60
2022/12/05 03:30:15;;;;;;;29.27;14.60;;;;;;;-142.25;100.00;58004.16;5033211;28;20111;-61
2022/12/05 03:32:50;;;;;;;25.50;12.60;;;;;;;-142.25;100.00;58004.16;5028594;28;20460;-60
2022/12/05 03:35:33;;;;;;;35.25;15.70;;;;;;;-142.25;100.00;58004.16;5027122;28;20044;-60
2022/12/05 03:38:13;;;;;;;43.47;18.73;;;;;;;-142.25;100.00;58004.16;5032781;28;20045;-61
2022/12/05 03:40:48;;;;;;;102.37;42.33;;;;;;;-142.25;100.00;58004.16;5032698;28;20038;-61
2022/12/05 03:43:37;;;;;;;25.73;14.98;;;;;;;-142.25;100.00;58004.16;5033230;28;20071;-62
2022/12/05 03:46:10;;;;;;;50.77;25.77;;;;;;;-142.25;100.00;58004.16;5034303;28;20049;-61
2022/12/05 03:48:48;;;;;;;62.57;30.80;;;;;;;-142.25;100.00;58004.16;5036398;28;20036;-60
2022/12/05 03:51:17;;;;;;;67.33;34.70;;;;;;;-142.25;100.00;58004.16;5033969;28;20044;-60
2022/12/05 03:53:56;;;;;;;54.03;28.47;;;;;;;-142.25;100.00;58004.16;5031341;28;20041;-60
2022/12/05 03:56:34;;;;;;;46.60;27.63;;;;;;;-142.25;100.00;58004.16;5032631;28;20045;-60
2022/12/05 03:59:31;;;;;;;34.77;20.47;;;;;;;-142.25;100.00;58004.16;5032932;28;20120;-61
2022/12/05 04:02:03;;;;;;;22.90;14.80;;;;;;;-142.25;100.00;58004.16;5029811;28;20054;-60
2022/12/05 04:04:39;;;;;;;16.97;11.37;;;;;;;-142.25;100.00;58004.16;5030437;28;20636;-60
2022/12/05 04:07:07;;;;;;;22.07;12.87;;;;;;;-142.25;100.00;58004.16;5028575;28;20056;-61
2022/12/05 04:09:43;;;;;;;20.17;11.87;;;;;;;-142.25;100.00;58004.16;5029169;28;20119;-61
2022/12/05 04:12:18;;;;;;;16.88;10.20;;;;;;;-142.25;100.00;58004.16;5025415;28;20045;-60
2022/12/05 04:14:48;;;;;;;17.23;10.10;;;;;;;-142.25;100.00;58004.16;5022756;28;20056;-60
2022/12/05 04:17:23;;;;;;;19.00;10.90;;;;;;;-142.25;100.00;58004.16;5028240;28;20056;-60
2022/12/05 04:22:40;;;;;;;15.77;10.30;;;;;;;-142.25;100.00;58004.16;5030434;28;20041;-60
2022/12/05 04:28:25;;;;;;;16.13;9.33;;;;;;;-142.25;100.00;58004.16;5028837;28;20063;-64
2022/12/05 04:31:03;;;;;;;17.40;10.25;;;;;;;-142.25;100.00;58004.16;5028796;28;20120;-61
2022/12/05 04:34:05;;;;;;;14.93;9.27;;;;;;;-142.25;100.00;58004.16;5012788;28;20099;-60
2022/12/05 04:36:37;;;;;;;12.87;8.57;;;;;;;-142.25;100.00;58004.16;4985698;28;20065;-59
2022/12/05 04:39:25;;;;;;;13.10;8.60;;;;;;;-142.25;100.00;58004.16;5031852;28;20045;-60
2022/12/05 04:42:00;;;;;;;15.07;8.40;;;;;;;-142.25;100.00;58004.16;5033931;28;20048;-60
2022/12/05 04:44:33;;;;;;;13.80;8.25;;;;;;;-142.25;100.00;58004.16;5028776;28;20128;-61
2022/12/05 04:47:03;;;;;;;16.53;9.30;;;;;;;-142.25;100.00;58004.16;5029572;28;20053;-60
2022/12/05 04:49:31;;;;;;;14.40;9.53;;;;;;;-142.25;100.00;58004.16;5033929;28;20034;-60
2022/12/05 04:52:02;;;;;;;15.37;9.17;;;;;;;-142.25;100.00;58004.16;5033050;28;20040;-60
2022/12/05 04:54:33;;;;;;;13.73;8.87;;;;;;;-142.25;100.00;58004.16;5034890;28;20064;-61
2022/12/05 04:57:08;;;;;;;20.13;11.10;;;;;;;-142.25;100.00;58004.16;5036292;28;20503;-60
2022/12/05 04:59:34;;;;;;;20.50;10.90;;;;;;;-142.25;100.00;58004.16;5036487;28;20059;-60
2022/12/05 05:02:07;;;;;;;21.00;11.77;;;;;;;-142.25;100.00;58004.16;5037732;28;20063;-61
2022/12/05 05:04:40;;;;;;;25.77;14.20;;;;;;;-142.25;100.00;58004.16;5035791;28;20037;-58
2022/12/05 05:07:09;;;;;;;20.43;12.73;;;;;;;-142.25;100.00;58004.16;5022300;28;20038;-59
2022/12/05 05:09:35;;;;;;;21.90;13.13;;;;;;;-142.25;100.00;58004.16;5051028;28;20045;-59
2022/12/05 05:12:01;;;;;;;21.97;13.57;;;;;;;-142.25;100.00;58004.16;5034116;28;20075;-60
2022/12/05 05:14:27;;;;;;;20.50;13.00;;;;;;;-142.25;100.00;58004.16;5035708;28;20053;-60
2022/12/05 05:16:53;;;;;;;18.80;12.47;;;;;;;-142.25;100.00;58004.16;5031242;28;20041;-60
2022/12/05 05:19:18;;;;;;;18.43;10.63;;;;;;;-142.25;100.00;58004.16;5029573;28;20045;-60
2022/12/05 05:21:44;;;;;;;17.50;11.37;;;;;;;-142.25;100.00;58004.16;5037270;28;20055;-59
2022/12/05 05:24:11;;;;;;;18.00;10.37;;;;;;;-142.25;100.00;58004.16;5034566;28;20045;-60
2022/12/05 05:26:39;;;;;;;13.13;9.87;;;;;;;-142.25;100.00;58004.16;5034932;28;20060;-60
2022/12/05 05:29:05;;;;;;;13.70;9.03;;;;;;;-142.25;100.00;58004.16;5034138;28;20038;-60
2022/12/05 05:31:31;;;;;;;17.20;10.73;;;;;;;-142.25;100.00;58004.16;5034032;28;20036;-60
2022/12/05 05:33:57;;;;;;;17.50;10.37;;;;;;;-142.25;100.00;58004.16;5034904;28;20037;-59
2022/12/05 05:36:26;;;;;;;16.07;9.43;;;;;;;-142.25;100.00;58004.16;5035406;28;20041;-60
2022/12/05 05:38:54;;;;;;;14.53;9.67;;;;;;;-142.25;100.00;58004.16;5032721;28;20511;-58
2022/12/05 05:41:26;;;;;;;14.37;9.80;;;;;;;-142.25;100.00;58004.16;5027448;28;20091;-61
2022/12/05 05:43:52;;;;;;;15.13;9.73;;;;;;;-142.25;100.00;58004.16;5032352;28;20066;-59
2022/12/05 05:46:21;;;;;;;19.07;12.40;;;;;;;-142.25;100.00;58004.16;5035479;28;20105;-60
2022/12/05 05:48:47;;;;;;;16.97;10.37;;;;;;;-142.25;100.00;58004.16;5031620;28;20041;-61
2022/12/05 05:51:14;;;;;;;16.60;9.63;;;;;;;-142.25;100.00;58004.16;5031296;28;20156;-60
2022/12/05 05:53:40;;;;;;;17.67;10.30;;;;;;;-142.25;100.00;58004.16;5030801;28;20102;-60
2022/12/05 05:56:12;;;;;;;18.80;11.50;;;;;;;-142.25;100.00;58004.16;5031880;28;20045;-61
2022/12/05 05:58:38;;;;;;;21.47;12.87;;;;;;;-142.25;100.00;58004.16;5034909;28;20098;-60
2022/12/05 06:01:15;;;;;;;20.47;12.10;;;;;;;-142.25;100.00;58004.16;5032947;28;20051;-61
2022/12/05 06:03:41;;;;;;;22.70;13.53;;;;;;;-142.25;100.00;58004.16;5034595;28;20044;-60
2022/12/05 06:06:09;;;;;;;19.93;12.57;;;;;;;-142.25;100.00;58004.16;5029023;28;20046;-58
2022/12/05 06:08:38;;;;;;;17.93;11.87;;;;;;;-142.25;100.00;58004.16;5027480;28;20055;-60
2022/12/05 06:11:13;;;;;;;21.83;13.10;;;;;;;-142.25;100.00;58004.16;5033637;28;20060;-59
2022/12/05 06:13:39;;;;;;;25.00;15.40;;;;;;;-142.25;100.00;58004.16;5027249;28;20037;-58
2022/12/05 06:16:08;;;;;;;22.73;13.33;;;;;;;-142.25;100.00;58004.16;5028190;28;20060;-59
2022/12/05 06:18:34;;;;;;;21.60;13.40;;;;;;;-142.25;100.00;58004.16;5031040;28;20061;-57
2022/12/05 06:21:00;;;;;;;19.77;12.67;;;;;;;-142.25;100.00;58004.16;5027940;28;20037;-59
2022/12/05 06:23:26;;;;;;;23.77;14.17;;;;;;;-142.25;100.00;58004.16;5031727;28;20571;-58
2022/12/05 06:25:54;;;;;;;23.20;14.83;;;;;;;-142.25;100.00;58004.16;5034328;28;20399;-58
2022/12/05 06:28:22;;;;;;;25.10;15.07;;;;;;;-142.25;100.00;58004.16;5035043;28;20587;-60
2022/12/05 06:30:47;;;;;;;23.27;14.53;;;;;;;-142.25;100.00;58004.16;5032642;28;20657;-60
2022/12/05 06:33:14;;;;;;;24.60;15.47;;;;;;;-142.25;100.00;58004.16;5029983;28;20053;-60
2022/12/05 06:35:40;;;;;;;24.40;14.40;;;;;;;-142.25;100.00;58004.16;5032299;28;20041;-60
2022/12/05 06:38:09;;;;;;;25.60;15.13;;;;;;;-142.25;100.00;58004.16;5033134;28;20044;-61
2022/12/05 06:40:40;;;;;;;23.63;14.33;;;;;;;-142.25;100.00;58004.16;5029620;28;20433;-61
2022/12/05 06:43:06;;;;;;;24.70;15.17;;;;;;;-142.25;100.00;58004.16;5032494;28;20083;-61
2022/12/05 06:45:31;;;;;;;30.40;14.50;;;;;;;-142.25;100.00;58004.16;5033989;28;20477;-61
2022/12/05 06:47:57;;;;;;;23.43;14.43;;;;;;;-142.25;100.00;58004.16;5033031;28;20042;-58
2022/12/05 06:50:23;;;;;;;26.23;15.50;;;;;;;-142.25;100.00;58004.16;5033188;28;20053;-59
2022/12/05 06:52:50;;;;;;;25.73;15.13;;;;;;;-142.25;100.00;58004.16;5032542;28;20048;-60
2022/12/05 06:55:16;;;;;;;31.70;18.27;;;;;;;-142.25;100.00;58004.16;5032933;28;20508;-61
2022/12/05 06:57:41;;;;;;;25.27;15.23;;;;;;;-142.25;100.00;58004.16;5032214;28;20053;-61
2022/12/05 07:02:52;;;;;;;30.85;17.90;;;;;;;-142.25;100.00;58004.16;5027627;28;20393;-62
2022/12/05 07:05:18;;;;;;;36.33;19.10;;;;;;;-142.25;100.00;58004.16;5030465;28;20057;-57
2022/12/05 07:07:44;;;;;;;29.37;16.40;;;;;;;-142.25;100.00;58004.16;5027375;28;20091;-58
2022/12/05 07:10:09;;;;;;;35.57;18.83;;;;;;;-142.25;100.00;58004.16;5030265;28;20044;-58
2022/12/05 07:12:35;;;;;;;34.93;20.57;;;;;;;-142.25;100.00;58004.16;5028358;28;20095;-57
2022/12/05 07:15:01;;;;;;;30.17;17.07;;;;;;;-142.25;100.00;58004.16;5030531;28;20056;-57
2022/12/05 07:17:27;;;;;;;30.57;17.13;;;;;;;-142.25;100.00;58004.16;5033949;28;20052;-59
2022/12/05 07:19:52;;;;;;;34.87;18.73;;;;;;;-142.25;100.00;58004.16;5033623;28;20033;-59
2022/12/05 07:22:20;;;;;;;30.70;17.30;;;;;;;-142.25;100.00;58004.16;5034203;28;20065;-57
2022/12/05 07:24:47;;;;;;;25.60;15.53;;;;;;;-142.25;100.00;58004.16;5032236;28;20056;-58
2022/12/05 07:27:14;;;;;;;26.17;15.57;;;;;;;-142.25;100.00;58004.16;5032153;28;20413;-61
2022/12/05 07:29:40;;;;;;;27.53;16.00;;;;;;;-142.25;100.00;58004.16;5023120;28;20069;-60
2022/12/05 07:32:06;;;;;;;34.50;17.83;;;;;;;-142.25;100.00;58004.16;5029343;28;20611;-60
2022/12/05 07:34:31;;;;;;;30.43;17.73;;;;;;;-142.25;100.00;58004.16;5027769;28;20132;-59
2022/12/05 07:36:57;;;;;;;34.80;18.23;;;;;;;-142.25;100.00;58004.16;5027541;28;20144;-59
2022/12/05 07:39:23;;;;;;;26.93;14.97;;;;;;;-142.25;100.00;58004.16;5022599;28;20033;-61
2022/12/05 07:41:48;;;;;;;27.73;14.97;;;;;;;-142.25;100.00;58004.16;5028845;28;20045;-60
2022/12/05 07:44:15;;;;;;;29.53;15.17;;;;;;;-142.25;100.00;58004.16;5032382;28;20033;-59
2022/12/05 07:46:41;;;;;;;23.67;13.97;;;;;;;-142.25;100.00;58004.16;5032372;28;20448;-60
2022/12/05 07:49:07;;;;;;;22.97;14.30;;;;;;;-142.25;100.00;58004.16;5028785;28;20033;-59
2022/12/05 07:51:34;;;;;;;23.63;14.13;;;;;;;-142.25;100.00;58004.16;5024662;28;20091;-59
2022/12/05 07:54:00;;;;;;;24.93;13.27;;;;;;;-142.25;100.00;58004.16;5029760;28;20408;-59
2022/12/05 07:56:26;;;;;;;21.83;13.23;;;;;;;-142.25;100.00;58004.16;5030342;28;20071;-59
2022/12/05 07:58:52;;;;;;;27.07;14.60;;;;;;;-142.25;100.00;58004.16;5033185;28;20079;-60
2022/12/05 08:01:23;;;;;;;24.77;13.50;;;;;;;-142.25;100.00;58004.16;5030887;28;20113;-59
2022/12/05 08:03:52;;;;;;;27.10;12.97;;;;;;;-142.25;100.00;58004.16;5030335;28;20047;-60
2022/12/05 08:06:23;;;;;;;20.77;13.77;;;;;;;-142.25;100.00;58004.16;5025289;28;20048;-60
2022/12/05 08:08:50;;;;;;;24.90;12.37;;;;;;;-142.25;100.00;58004.16;5031417;28;20038;-59
2022/12/05 08:11:27;;;;;;;23.63;12.77;;;;;;;-142.25;100.00;58004.16;5033115;28;20152;-59
2022/12/05 08:13:53;;;;;;;24.40;13.47;;;;;;;-142.25;100.00;58004.16;5026861;28;20484;-57
2022/12/05 08:16:21;;;;;;;23.80;12.63;;;;;;;-142.25;100.00;58004.16;5026498;28;20045;-59
2022/12/05 08:18:47;;;;;;;23.87;12.97;;;;;;;-142.25;100.00;58004.16;5031618;28;20099;-59
2022/12/05 08:21:16;;;;;;;20.93;12.83;;;;;;;-142.25;100.00;58004.16;5033061;28;20457;-59
2022/12/05 08:23:43;;;;;;;25.43;16.60;;;;;;;-142.25;100.00;58004.16;5033729;28;20138;-59
2022/12/05 08:26:11;;;;;;;22.27;13.77;;;;;;;-142.25;100.00;58004.16;5032032;28;20068;-60
2022/12/05 08:28:38;;;;;;;23.17;13.23;;;;;;;-142.25;100.00;58004.16;5033701;28;20595;-60
2022/12/05 08:31:05;;;;;;;23.27;14.00;;;;;;;-142.25;100.00;58004.16;5035604;28;20038;-61
2022/12/05 08:33:31;;;;;;;20.57;13.20;;;;;;;-142.25;100.00;58004.16;5034904;28;20045;-59
2022/12/05 08:36:00;;;;;;;23.97;13.27;;;;;;;-142.25;100.00;58004.16;5035246;28;20542;-59
2022/12/05 08:38:25;;;;;;;24.60;15.10;;;;;;;-142.25;100.00;58004.16;5035219;28;20039;-60
2022/12/05 08:40:51;;;;;;;23.93;14.23;;;;;;;-142.25;100.00;58004.16;5035429;28;20033;-60
2022/12/05 08:43:16;;;;;;;24.63;14.33;;;;;;;-142.25;100.00;58004.16;5036959;28;20053;-60
2022/12/05 08:45:49;;;;;;;25.00;12.93;;;;;;;-142.25;100.00;58004.16;5035631;28;20061;-60
2022/12/05 08:48:15;;;;;;;20.20;12.90;;;;;;;-142.25;100.00;58004.16;5037057;28;20397;-61
2022/12/05 08:50:41;;;;;;;24.23;13.93;;;;;;;-142.25;100.00;58004.16;5037627;28;20041;-60
2022/12/05 08:53:06;;;;;;;24.40;13.67;;;;;;;-142.25;100.00;58004.16;5033547;28;20046;-59
2022/12/05 08:55:34;;;;;;;27.80;14.73;;;;;;;-142.25;100.00;58004.16;5030649;28;20040;-60
2022/12/05 08:57:59;;;;;;;23.80;13.93;;;;;;;-142.25;100.00;58004.16;5031699;28;20093;-59
2022/12/05 09:00:25;;;;;;;24.60;13.80;;;;;;;-142.25;100.00;58004.16;5034148;28;20132;-59
2022/12/05 09:02:51;;;;;;;23.60;14.97;;;;;;;-142.25;100.00;58004.16;5029425;28;20510;-59
2022/12/05 09:05:17;;;;;;;19.73;13.23;;;;;;;-142.25;100.00;58004.16;5033161;28;20492;-59
2022/12/05 09:07:42;;;;;;;22.73;12.00;;;;;;;-142.25;100.00;58004.16;5035431;28;20474;-59
2022/12/05 09:10:08;;;;;;;20.83;12.07;;;;;;;-142.25;100.00;58004.16;5033695;28;20676;-60
2022/12/05 09:12:37;;;;;;;24.77;16.43;;;;;;;-142.25;100.00;58004.16;5030921;28;20069;-59
2022/12/05 09:15:06;;;;;;;24.00;14.60;;;;;;;-142.25;100.00;58004.16;5028792;28;20156;-58
2022/12/05 09:17:32;;;;;;;19.23;12.93;;;;;;;-142.25;100.00;58004.16;5034077;28;20471;-62
2022/12/05 09:19:58;;;;;;;21.70;14.03;;;;;;;-142.25;100.00;58004.16;5028234;28;20347;-60
2022/12/05 09:22:23;;;;;;;20.67;13.00;;;;;;;-142.25;100.00;58004.16;5028916;28;20042;-61
2022/12/05 09:24:49;;;;;;;17.73;12.47;;;;;;;-142.25;100.00;58004.16;5036346;28;20045;-60
2022/12/05 09:27:15;;;;;;;20.40;12.53;;;;;;;-142.25;100.00;58004.16;5033337;28;20048;-60
2022/12/05 09:29:41;;;;;;;17.50;11.63;;;;;;;-142.25;100.00;58004.16;5043579;28;20424;-60
2022/12/05 09:32:08;;;;;;;17.63;11.37;;;;;;;-142.25;100.00;58004.16;5033544;28;20044;-59
2022/12/05 09:34:36;;;;;;;17.60;11.03;;;;;;;-142.25;100.00;58004.16;5027776;28;20239;-60
2022/12/05 09:37:04;;;;;;;15.90;11.40;;;;;;;-142.25;100.00;58004.16;5030727;28;20041;-59
2022/12/05 09:39:29;;;;;;;17.60;11.67;;;;;;;-142.25;100.00;58004.16;5042062;28;20039;-60
2022/12/05 09:42:19;;;;;;;17.20;13.00;;;;;;;-142.25;100.00;58004.16;5034070;28;20036;-62
2022/12/05 09:45:00;;;;;;;16.43;11.60;;;;;;;-142.25;100.00;58004.16;5034319;28;20099;-59
2022/12/05 09:47:26;;;;;;;18.50;12.17;;;;;;;-142.25;100.00;58004.16;5030325;28;20497;-59
2022/12/05 09:50:16;;;;;;;17.73;11.57;;;;;;;-142.25;100.00;58004.16;5030843;28;20163;-59
2022/12/05 09:53:03;;;;;;;19.03;12.43;;;;;;;-142.25;100.00;58004.16;5034976;28;20105;-59
2022/12/05 09:56:01;;;;;;;19.47;12.30;;;;;;;-142.25;100.00;58004.16;5033283;28;20045;-60
2022/12/05 09:58:43;;;;;;;22.53;14.57;;;;;;;-142.25;100.00;58004.16;5037045;28;20382;-58
2022/12/05 10:01:34;;;;;;;23.73;15.47;;;;;;;-142.25;100.00;58004.16;5034134;28;20047;-59
2022/12/05 10:04:21;;;;;;;28.87;18.03;;;;;;;-142.25;100.00;58004.16;5030090;28;20041;-64
2022/12/05 10:07:27;;;;;;;24.33;15.47;;;;;;;-142.25;100.00;58004.16;5030193;28;20530;-62
2022/12/05 10:10:01;;;;;;;22.70;14.13;;;;;;;-142.25;100.00;58004.16;5024609;28;20495;-61
2022/12/05 10:12:42;;;;;;;22.73;14.25;;;;;;;-142.25;100.00;58004.16;5028458;28;20531;-62
2022/12/05 10:15:13;;;;;;;27.07;14.57;;;;;;;-142.25;100.00;58004.16;5028673;28;20132;-62
2022/12/05 10:17:49;;;;;;;20.37;13.47;;;;;;;-142.25;100.00;58004.16;5029427;28;20079;-61
2022/12/05 10:20:23;;;;;;;19.17;12.23;;;;;;;-142.25;100.00;58004.16;5028547;28;20540;-61
2022/12/05 10:22:55;;;;;;;23.13;13.27;;;;;;;-142.25;100.00;58004.16;5021381;28;20511;-62
2022/12/05 10:25:25;;;;;;;24.10;14.20;;;;;;;-142.25;100.00;58004.16;5032684;28;20049;-61
2022/12/05 10:27:54;;;;;;;29.07;16.30;;;;;;;-142.25;100.00;58004.16;5031714;28;20052;-61
2022/12/05 10:30:22;;;;;;;26.77;16.40;;;;;;;-142.25;100.00;58004.16;5034299;28;20775;-61
2022/12/05 10:32:51;;;;;;;21.03;12.57;;;;;;;-142.25;100.00;58004.16;5048722;28;20045;-61
2022/12/05 10:35:20;;;;;;;20.20;14.17;;;;;;;-142.25;100.00;58004.16;5033342;28;20488;-62
2022/12/05 10:38:11;;;;;;;26.23;15.83;;;;;;;-142.25;100.00;58004.16;5032634;28;20052;-60
2022/12/05 10:40:40;;;;;;;26.33;17.43;;;;;;;-142.25;100.00;58004.16;5033606;28;20049;-62
2022/12/05 10:43:09;;;;;;;22.83;15.27;;;;;;;-142.25;100.00;58004.16;5033267;28;20036;-61
2022/12/05 10:45:45;;;;;;;21.07;14.87;;;;;;;-142.25;100.00;58004.16;5037736;28;20057;-61
2022/12/05 10:48:14;;;;;;;20.97;13.97;;;;;;;-142.25;100.00;58004.16;5034068;28;20121;-60
2022/12/05 10:50:42;;;;;;;24.30;15.30;;;;;;;-142.25;100.00;58004.16;5035424;28;20072;-61
2022/12/05 10:53:15;;;;;;;22.53;14.93;;;;;;;-142.25;100.00;58004.16;5031895;28;20455;-61
2022/12/05 10:55:45;;;;;;;24.53;15.30;;;;;;;-142.25;100.00;58004.16;5031979;28;20045;-61
2022/12/05 10:58:14;;;;;;;21.87;14.97;;;;;;;-142.25;100.00;58004.16;5035271;28;20045;-64
2022/12/05 11:00:47;;;;;;;22.23;14.03;;;;;;;-142.25;100.00;58004.16;5035005;28;20037;-61
2022/12/05 11:03:23;;;;;;;24.30;15.07;;;;;;;-142.25;100.00;58004.16;5034060;28;20041;-62
2022/12/05 11:05:50;;;;;;;22.93;15.50;;;;;;;-142.25;100.00;58004.16;5034471;28;20076;-61
2022/12/05 11:08:22;;;;;;;24.20;14.23;;;;;;;-142.25;100.00;58004.16;5032513;28;20072;-62
2022/12/05 11:10:48;;;;;;;25.00;16.63;;;;;;;-142.25;100.00;58004.16;5028540;28;20151;-61
2022/12/05 11:13:23;;;;;;;24.40;15.03;;;;;;;-142.25;100.00;58004.16;5027383;28;20513;-60
2022/12/05 11:15:49;;;;;;;29.73;16.08;;;;;;;-142.25;100.00;58004.16;5031762;28;20053;-60
2022/12/05 11:18:23;;;;;;;28.87;15.80;;;;;;;-142.25;100.00;58004.16;5033503;28;20389;-60
2022/12/05 11:20:49;;;;;;;27.17;15.30;;;;;;;-142.25;100.00;58004.16;5033529;28;20156;-60